sensor_id;sensor_type;location;lat;lon;timestamp;P1;durP1;ratioP1;P2;durP2;ratioP2
59587;SDS011;45412;54.472;18.464;2024-03-08T00:00:53;46.70;;;19.20;;
59587;SDS011;45412;54.472;18.464;2024-03-08T00:03:45;42.70;;;18.20;;
59587;SDS011;45412;54.472;18.464;2024-03-08T00:06:33;46.40;;;19.50;;
59587;SDS011;45412;54.472;18.464;2024-03-08T00:09:21;43.80;;;18.90;;
59587;SDS011;45412;54.472;18.464;2024-03-08T00:12:09;43.50;;;17.30;;
59587;SDS011;45412;54.472;18.464;2024-03-08T00:14:58;32.70;;;15.20;;
59587;SDS011;45412;54.472;18.464;2024-03-08T00:17:47;31.00;;;13.30;;
59587;SDS011;45412;54.472;18.464;2024-03-08T00:20:36;26.70;;;12.40;;
59587;SDS011;45412;54.472;18.464;2024-03-08T00:23:24;29.30;;;13.80;;
59587;SDS011;45412;54.472;18.464;2024-03-08T00:26:12;33.40;;;13.90;;
59587;SDS011;45412;54.472;18.464;2024-03-08T00:29:00;32.70;;;13.90;;
59587;SDS011;45412;54.472;18.464;2024-03-08T00:31:49;26.00;;;11.70;;
59587;SDS011;45412;54.472;18.464;2024-03-08T00:34:37;25.40;;;11.60;;
59587;SDS011;45412;54.472;18.464;2024-03-08T00:37:25;26.60;;;12.00;;
59587;SDS011;45412;54.472;18.464;2024-03-08T00:40:13;28.50;;;11.50;;
59587;SDS011;45412;54.472;18.464;2024-03-08T00:43:02;26.30;;;11.50;;
59587;SDS011;45412;54.472;18.464;2024-03-08T00:45:51;22.20;;;10.40;;
59587;SDS011;45412;54.472;18.464;2024-03-08T00:48:39;20.90;;;10.20;;
59587;SDS011;45412;54.472;18.464;2024-03-08T00:51:31;24.00;;;11.20;;
59587;SDS011;45412;54.472;18.464;2024-03-08T00:54:19;32.40;;;12.90;;
59587;SDS011;45412;54.472;18.464;2024-03-08T00:57:07;33.00;;;13.00;;
59587;SDS011;45412;54.472;18.464;2024-03-08T00:59:55;31.00;;;13.40;;
59587;SDS011;45412;54.472;18.464;2024-03-08T01:02:44;33.40;;;13.90;;
59587;SDS011;45412;54.472;18.464;2024-03-08T01:05:33;26.60;;;12.90;;
59587;SDS011;45412;54.472;18.464;2024-03-08T01:08:23;30.60;;;13.70;;
59587;SDS011;45412;54.472;18.464;2024-03-08T01:11:13;30.60;;;13.30;;
59587;SDS011;45412;54.472;18.464;2024-03-08T01:14:02;32.90;;;13.40;;
59587;SDS011;45412;54.472;18.464;2024-03-08T01:16:50;28.00;;;12.70;;
59587;SDS011;45412;54.472;18.464;2024-03-08T01:19:38;28.50;;;11.70;;
59587;SDS011;45412;54.472;18.464;2024-03-08T01:22:26;30.70;;;12.80;;
59587;SDS011;45412;54.472;18.464;2024-03-08T01:25:16;29.60;;;13.90;;
59587;SDS011;45412;54.472;18.464;2024-03-08T01:28:04;37.30;;;14.80;;
59587;SDS011;45412;54.472;18.464;2024-03-08T01:30:53;32.90;;;15.10;;
59587;SDS011;45412;54.472;18.464;2024-03-08T01:33:44;36.90;;;15.70;;
59587;SDS011;45412;54.472;18.464;2024-03-08T01:36:33;37.70;;;14.10;;
59587;SDS011;45412;54.472;18.464;2024-03-08T01:39:21;34.40;;;13.20;;
59587;SDS011;45412;54.472;18.464;2024-03-08T01:42:09;28.50;;;12.40;;
59587;SDS011;45412;54.472;18.464;2024-03-08T01:45:00;30.80;;;12.80;;
59587;SDS011;45412;54.472;18.464;2024-03-08T01:47:48;31.20;;;12.00;;
59587;SDS011;45412;54.472;18.464;2024-03-08T01:50:37;30.20;;;12.30;;
59587;SDS011;45412;54.472;18.464;2024-03-08T01:53:26;27.50;;;12.30;;
59587;SDS011;45412;54.472;18.464;2024-03-08T01:56:16;25.90;;;10.80;;
59587;SDS011;45412;54.472;18.464;2024-03-08T01:59:05;26.50;;;11.60;;
59587;SDS011;45412;54.472;18.464;2024-03-08T02:01:55;26.00;;;11.70;;
59587;SDS011;45412;54.472;18.464;2024-03-08T02:04:49;24.70;;;11.20;;
59587;SDS011;45412;54.472;18.464;2024-03-08T02:07:41;25.80;;;9.90;;
59587;SDS011;45412;54.472;18.464;2024-03-08T02:10:33;25.80;;;10.20;;
59587;SDS011;45412;54.472;18.464;2024-03-08T02:13:21;25.80;;;11.20;;
59587;SDS011;45412;54.472;18.464;2024-03-08T02:16:10;30.90;;;12.70;;
59587;SDS011;45412;54.472;18.464;2024-03-08T02:18:58;27.00;;;12.60;;
59587;SDS011;45412;54.472;18.464;2024-03-08T02:21:46;30.00;;;12.60;;
59587;SDS011;45412;54.472;18.464;2024-03-08T02:24:35;31.00;;;12.10;;
59587;SDS011;45412;54.472;18.464;2024-03-08T02:27:24;27.20;;;10.90;;
59587;SDS011;45412;54.472;18.464;2024-03-08T02:30:17;24.50;;;11.00;;
59587;SDS011;45412;54.472;18.464;2024-03-08T02:33:06;28.50;;;10.60;;
59587;SDS011;45412;54.472;18.464;2024-03-08T02:35:55;27.20;;;11.40;;
59587;SDS011;45412;54.472;18.464;2024-03-08T02:38:46;25.90;;;10.80;;
59587;SDS011;45412;54.472;18.464;2024-03-08T02:41:34;23.80;;;10.90;;
59587;SDS011;45412;54.472;18.464;2024-03-08T02:44:22;26.30;;;11.30;;
59587;SDS011;45412;54.472;18.464;2024-03-08T02:47:10;26.30;;;11.00;;
59587;SDS011;45412;54.472;18.464;2024-03-08T02:49:58;25.50;;;10.40;;
59587;SDS011;45412;54.472;18.464;2024-03-08T02:52:46;23.00;;;9.40;;
59587;SDS011;45412;54.472;18.464;2024-03-08T02:55:34;30.70;;;11.10;;
59587;SDS011;45412;54.472;18.464;2024-03-08T02:58:23;22.50;;;9.30;;
59587;SDS011;45412;54.472;18.464;2024-03-08T03:01:12;18.20;;;8.90;;
59587;SDS011;45412;54.472;18.464;2024-03-08T03:04:00;19.10;;;8.20;;
59587;SDS011;45412;54.472;18.464;2024-03-08T03:06:48;19.70;;;8.00;;
59587;SDS011;45412;54.472;18.464;2024-03-08T03:09:36;21.00;;;8.30;;
59587;SDS011;45412;54.472;18.464;2024-03-08T03:12:24;21.40;;;8.40;;
59587;SDS011;45412;54.472;18.464;2024-03-08T03:15:12;20.60;;;7.90;;
59587;SDS011;45412;54.472;18.464;2024-03-08T03:18:01;17.60;;;7.60;;
59587;SDS011;45412;54.472;18.464;2024-03-08T03:20:49;19.00;;;8.00;;
59587;SDS011;45412;54.472;18.464;2024-03-08T03:23:39;21.10;;;8.40;;
59587;SDS011;45412;54.472;18.464;2024-03-08T03:26:27;27.20;;;10.80;;
59587;SDS011;45412;54.472;18.464;2024-03-08T03:29:16;75.80;;;35.00;;
59587;SDS011;45412;54.472;18.464;2024-03-08T03:32:04;79.30;;;34.00;;
59587;SDS011;45412;54.472;18.464;2024-03-08T03:34:52;58.00;;;28.80;;
59587;SDS011;45412;54.472;18.464;2024-03-08T03:37:41;48.90;;;22.50;;
59587;SDS011;45412;54.472;18.464;2024-03-08T03:40:39;37.40;;;18.30;;
59587;SDS011;45412;54.472;18.464;2024-03-08T03:43:28;28.80;;;12.20;;
59587;SDS011;45412;54.472;18.464;2024-03-08T03:46:17;20.80;;;8.60;;
59587;SDS011;45412;54.472;18.464;2024-03-08T03:49:04;23.70;;;8.80;;
59587;SDS011;45412;54.472;18.464;2024-03-08T03:51:52;25.30;;;9.00;;
59587;SDS011;45412;54.472;18.464;2024-03-08T03:54:41;30.10;;;12.00;;
59587;SDS011;45412;54.472;18.464;2024-03-08T03:57:30;32.80;;;11.60;;
59587;SDS011;45412;54.472;18.464;2024-03-08T04:00:19;32.30;;;10.70;;
59587;SDS011;45412;54.472;18.464;2024-03-08T04:03:07;36.50;;;12.50;;
59587;SDS011;45412;54.472;18.464;2024-03-08T04:05:57;39.00;;;14.70;;
59587;SDS011;45412;54.472;18.464;2024-03-08T04:08:45;37.50;;;13.40;;
59587;SDS011;45412;54.472;18.464;2024-03-08T04:11:34;38.50;;;12.20;;
59587;SDS011;45412;54.472;18.464;2024-03-08T04:14:23;33.90;;;11.60;;
59587;SDS011;45412;54.472;18.464;2024-03-08T04:17:11;39.90;;;11.90;;
59587;SDS011;45412;54.472;18.464;2024-03-08T04:20:00;47.60;;;14.70;;
59587;SDS011;45412;54.472;18.464;2024-03-08T04:22:48;49.10;;;19.60;;
59587;SDS011;45412;54.472;18.464;2024-03-08T04:25:37;46.40;;;17.60;;
59587;SDS011;45412;54.472;18.464;2024-03-08T04:28:25;37.90;;;12.60;;
59587;SDS011;45412;54.472;18.464;2024-03-08T04:31:14;37.10;;;13.80;;
59587;SDS011;45412;54.472;18.464;2024-03-08T04:34:03;44.00;;;14.20;;
59587;SDS011;45412;54.472;18.464;2024-03-08T04:36:53;53.90;;;18.40;;
59587;SDS011;45412;54.472;18.464;2024-03-08T04:39:41;49.70;;;16.10;;
59587;SDS011;45412;54.472;18.464;2024-03-08T04:42:28;49.10;;;17.30;;
59587;SDS011;45412;54.472;18.464;2024-03-08T04:45:20;51.40;;;16.70;;
59587;SDS011;45412;54.472;18.464;2024-03-08T04:48:09;51.40;;;19.70;;
59587;SDS011;45412;54.472;18.464;2024-03-08T04:50:57;66.90;;;23.80;;
59587;SDS011;45412;54.472;18.464;2024-03-08T04:53:45;64.40;;;23.10;;
59587;SDS011;45412;54.472;18.464;2024-03-08T04:56:34;68.80;;;25.80;;
59587;SDS011;45412;54.472;18.464;2024-03-08T04:59:22;77.50;;;23.90;;
59587;SDS011;45412;54.472;18.464;2024-03-08T05:02:10;71.10;;;24.10;;
59587;SDS011;45412;54.472;18.464;2024-03-08T05:04:59;62.50;;;21.20;;
59587;SDS011;45412;54.472;18.464;2024-03-08T05:07:47;55.40;;;18.00;;
59587;SDS011;45412;54.472;18.464;2024-03-08T05:10:35;45.30;;;16.40;;
59587;SDS011;45412;54.472;18.464;2024-03-08T05:13:24;71.10;;;20.90;;
59587;SDS011;45412;54.472;18.464;2024-03-08T05:16:12;67.90;;;21.90;;
59587;SDS011;45412;54.472;18.464;2024-03-08T05:19:03;66.80;;;22.10;;
59587;SDS011;45412;54.472;18.464;2024-03-08T05:21:51;62.20;;;19.70;;
59587;SDS011;45412;54.472;18.464;2024-03-08T05:24:38;54.40;;;17.10;;
59587;SDS011;45412;54.472;18.464;2024-03-08T05:27:26;60.90;;;19.50;;
59587;SDS011;45412;54.472;18.464;2024-03-08T05:30:16;56.30;;;18.70;;
59587;SDS011;45412;54.472;18.464;2024-03-08T05:33:04;87.60;;;23.20;;
59587;SDS011;45412;54.472;18.464;2024-03-08T05:35:53;98.90;;;24.90;;
59587;SDS011;45412;54.472;18.464;2024-03-08T05:38:44;83.60;;;24.60;;
59587;SDS011;45412;54.472;18.464;2024-03-08T05:41:32;85.00;;;23.40;;
59587;SDS011;45412;54.472;18.464;2024-03-08T05:44:21;67.60;;;19.90;;
59587;SDS011;45412;54.472;18.464;2024-03-08T05:47:10;59.30;;;17.60;;
59587;SDS011;45412;54.472;18.464;2024-03-08T05:49:59;48.10;;;16.20;;
59587;SDS011;45412;54.472;18.464;2024-03-08T05:52:47;51.00;;;15.70;;
59587;SDS011;45412;54.472;18.464;2024-03-08T05:55:35;46.30;;;16.70;;
59587;SDS011;45412;54.472;18.464;2024-03-08T05:58:24;41.30;;;15.10;;
59587;SDS011;45412;54.472;18.464;2024-03-08T06:01:13;38.80;;;14.70;;
59587;SDS011;45412;54.472;18.464;2024-03-08T06:04:02;34.90;;;14.20;;
59587;SDS011;45412;54.472;18.464;2024-03-08T06:06:51;37.50;;;12.90;;
59587;SDS011;45412;54.472;18.464;2024-03-08T06:09:43;34.60;;;11.80;;
59587;SDS011;45412;54.472;18.464;2024-03-08T06:12:34;28.80;;;10.70;;
59587;SDS011;45412;54.472;18.464;2024-03-08T06:15:27;23.80;;;9.00;;
59587;SDS011;45412;54.472;18.464;2024-03-08T06:18:16;20.70;;;7.80;;
59587;SDS011;45412;54.472;18.464;2024-03-08T06:21:04;17.50;;;6.50;;
59587;SDS011;45412;54.472;18.464;2024-03-08T06:23:53;20.00;;;7.50;;
59587;SDS011;45412;54.472;18.464;2024-03-08T06:26:50;17.60;;;7.00;;
59587;SDS011;45412;54.472;18.464;2024-03-08T06:29:39;20.00;;;6.70;;
59587;SDS011;45412;54.472;18.464;2024-03-08T06:32:27;17.10;;;6.10;;
59587;SDS011;45412;54.472;18.464;2024-03-08T06:35:15;17.30;;;7.10;;
59587;SDS011;45412;54.472;18.464;2024-03-08T06:38:04;18.50;;;6.80;;
59587;SDS011;45412;54.472;18.464;2024-03-08T06:40:52;24.80;;;8.00;;
59587;SDS011;45412;54.472;18.464;2024-03-08T06:43:46;21.00;;;5.80;;
59587;SDS011;45412;54.472;18.464;2024-03-08T06:46:36;13.60;;;4.50;;
59587;SDS011;45412;54.472;18.464;2024-03-08T06:49:26;13.80;;;4.30;;
59587;SDS011;45412;54.472;18.464;2024-03-08T06:52:15;15.20;;;4.60;;
59587;SDS011;45412;54.472;18.464;2024-03-08T06:55:04;13.40;;;5.00;;
59587;SDS011;45412;54.472;18.464;2024-03-08T06:57:53;13.00;;;4.80;;
59587;SDS011;45412;54.472;18.464;2024-03-08T07:00:41;12.10;;;4.50;;
59587;SDS011;45412;54.472;18.464;2024-03-08T07:03:30;10.60;;;3.70;;
59587;SDS011;45412;54.472;18.464;2024-03-08T07:06:20;12.00;;;4.60;;
59587;SDS011;45412;54.472;18.464;2024-03-08T07:09:08;11.80;;;4.10;;
59587;SDS011;45412;54.472;18.464;2024-03-08T07:11:56;10.50;;;4.60;;
59587;SDS011;45412;54.472;18.464;2024-03-08T07:14:45;9.50;;;4.10;;
59587;SDS011;45412;54.472;18.464;2024-03-08T07:17:33;13.30;;;4.00;;
59587;SDS011;45412;54.472;18.464;2024-03-08T07:20:23;12.40;;;5.00;;
59587;SDS011;45412;54.472;18.464;2024-03-08T07:23:11;13.50;;;4.80;;
59587;SDS011;45412;54.472;18.464;2024-03-08T07:26:20;12.10;;;4.90;;
59587;SDS011;45412;54.472;18.464;2024-03-08T07:29:08;12.30;;;5.00;;
59587;SDS011;45412;54.472;18.464;2024-03-08T07:31:56;12.40;;;5.50;;
59587;SDS011;45412;54.472;18.464;2024-03-08T07:35:08;15.70;;;6.30;;
59587;SDS011;45412;54.472;18.464;2024-03-08T07:37:57;11.70;;;5.40;;
59587;SDS011;45412;54.472;18.464;2024-03-08T07:40:47;12.90;;;5.60;;
59587;SDS011;45412;54.472;18.464;2024-03-08T07:43:36;10.80;;;4.50;;
59587;SDS011;45412;54.472;18.464;2024-03-08T07:46:24;11.60;;;4.70;;
59587;SDS011;45412;54.472;18.464;2024-03-08T07:49:15;11.10;;;4.30;;
59587;SDS011;45412;54.472;18.464;2024-03-08T07:52:04;11.90;;;5.00;;
59587;SDS011;45412;54.472;18.464;2024-03-08T07:54:55;10.40;;;4.50;;
59587;SDS011;45412;54.472;18.464;2024-03-08T07:57:43;12.30;;;4.50;;
59587;SDS011;45412;54.472;18.464;2024-03-08T08:00:31;10.30;;;4.50;;
59587;SDS011;45412;54.472;18.464;2024-03-08T08:03:19;9.30;;;4.20;;
59587;SDS011;45412;54.472;18.464;2024-03-08T08:06:08;11.70;;;4.00;;
59587;SDS011;45412;54.472;18.464;2024-03-08T08:08:57;9.50;;;3.80;;
59587;SDS011;45412;54.472;18.464;2024-03-08T08:11:45;9.10;;;3.90;;
59587;SDS011;45412;54.472;18.464;2024-03-08T08:14:33;9.10;;;4.00;;
59587;SDS011;45412;54.472;18.464;2024-03-08T08:17:21;8.50;;;3.50;;
59587;SDS011;45412;54.472;18.464;2024-03-08T08:20:13;8.40;;;3.50;;
59587;SDS011;45412;54.472;18.464;2024-03-08T08:23:01;9.80;;;3.60;;
59587;SDS011;45412;54.472;18.464;2024-03-08T08:25:49;9.30;;;3.60;;
59587;SDS011;45412;54.472;18.464;2024-03-08T08:28:37;8.20;;;3.60;;
59587;SDS011;45412;54.472;18.464;2024-03-08T08:31:26;11.20;;;3.90;;
59587;SDS011;45412;54.472;18.464;2024-03-08T08:34:14;8.40;;;3.90;;
59587;SDS011;45412;54.472;18.464;2024-03-08T08:37:02;10.00;;;3.60;;
59587;SDS011;45412;54.472;18.464;2024-03-08T08:39:50;8.10;;;3.90;;
59587;SDS011;45412;54.472;18.464;2024-03-08T08:42:40;9.60;;;4.10;;
59587;SDS011;45412;54.472;18.464;2024-03-08T08:45:28;8.90;;;3.80;;
59587;SDS011;45412;54.472;18.464;2024-03-08T08:48:16;7.90;;;4.30;;
59587;SDS011;45412;54.472;18.464;2024-03-08T08:51:05;10.90;;;3.90;;
59587;SDS011;45412;54.472;18.464;2024-03-08T08:53:54;8.90;;;3.60;;
59587;SDS011;45412;54.472;18.464;2024-03-08T08:56:44;9.80;;;3.70;;
59587;SDS011;45412;54.472;18.464;2024-03-08T08:59:33;8.50;;;3.50;;
59587;SDS011;45412;54.472;18.464;2024-03-08T09:02:23;9.00;;;3.80;;
59587;SDS011;45412;54.472;18.464;2024-03-08T09:05:12;8.20;;;3.70;;
59587;SDS011;45412;54.472;18.464;2024-03-08T09:08:02;7.80;;;3.90;;
59587;SDS011;45412;54.472;18.464;2024-03-08T09:10:51;8.90;;;4.30;;
59587;SDS011;45412;54.472;18.464;2024-03-08T09:13:39;10.90;;;5.10;;
59587;SDS011;45412;54.472;18.464;2024-03-08T09:16:27;12.40;;;5.00;;
59587;SDS011;45412;54.472;18.464;2024-03-08T09:19:16;17.20;;;5.90;;
59587;SDS011;45412;54.472;18.464;2024-03-08T09:22:05;11.80;;;5.30;;
59587;SDS011;45412;54.472;18.464;2024-03-08T09:24:53;14.50;;;5.70;;
59587;SDS011;45412;54.472;18.464;2024-03-08T09:27:41;10.10;;;5.00;;
59587;SDS011;45412;54.472;18.464;2024-03-08T09:30:29;9.90;;;5.30;;
59587;SDS011;45412;54.472;18.464;2024-03-08T09:33:18;14.20;;;5.00;;
59587;SDS011;45412;54.472;18.464;2024-03-08T09:36:07;11.20;;;5.30;;
59587;SDS011;45412;54.472;18.464;2024-03-08T09:38:55;12.50;;;5.50;;
59587;SDS011;45412;54.472;18.464;2024-03-08T09:41:43;15.30;;;6.10;;
59587;SDS011;45412;54.472;18.464;2024-03-08T09:44:31;14.30;;;6.10;;
59587;SDS011;45412;54.472;18.464;2024-03-08T09:47:20;12.90;;;5.30;;
59587;SDS011;45412;54.472;18.464;2024-03-08T09:50:13;10.80;;;5.30;;
59587;SDS011;45412;54.472;18.464;2024-03-08T09:53:01;13.90;;;6.70;;
59587;SDS011;45412;54.472;18.464;2024-03-08T09:55:50;11.00;;;6.00;;
59587;SDS011;45412;54.472;18.464;2024-03-08T09:58:40;11.70;;;5.80;;
59587;SDS011;45412;54.472;18.464;2024-03-08T10:01:47;12.80;;;6.80;;
59587;SDS011;45412;54.472;18.464;2024-03-08T10:04:35;14.70;;;7.20;;
59587;SDS011;45412;54.472;18.464;2024-03-08T10:07:23;15.40;;;7.10;;
59587;SDS011;45412;54.472;18.464;2024-03-08T10:10:12;15.70;;;8.00;;
59587;SDS011;45412;54.472;18.464;2024-03-08T10:13:00;13.40;;;7.10;;
59587;SDS011;45412;54.472;18.464;2024-03-08T10:15:50;15.80;;;6.70;;
59587;SDS011;45412;54.472;18.464;2024-03-08T10:18:38;10.40;;;5.00;;
59587;SDS011;45412;54.472;18.464;2024-03-08T10:21:26;10.50;;;6.10;;
59587;SDS011;45412;54.472;18.464;2024-03-08T10:24:15;12.10;;;5.90;;
59587;SDS011;45412;54.472;18.464;2024-03-08T10:27:04;9.90;;;5.10;;
59587;SDS011;45412;54.472;18.464;2024-03-08T10:29:53;11.40;;;5.40;;
59587;SDS011;45412;54.472;18.464;2024-03-08T10:32:41;12.50;;;5.70;;
59587;SDS011;45412;54.472;18.464;2024-03-08T10:35:30;10.50;;;5.20;;
59587;SDS011;45412;54.472;18.464;2024-03-08T10:38:20;9.70;;;4.70;;
59587;SDS011;45412;54.472;18.464;2024-03-08T10:41:12;10.00;;;5.10;;
59587;SDS011;45412;54.472;18.464;2024-03-08T10:47:10;10.80;;;5.40;;
59587;SDS011;45412;54.472;18.464;2024-03-08T10:50:20;10.00;;;4.90;;
59587;SDS011;45412;54.472;18.464;2024-03-08T10:53:13;13.30;;;5.50;;
59587;SDS011;45412;54.472;18.464;2024-03-08T10:56:02;17.20;;;6.20;;
59587;SDS011;45412;54.472;18.464;2024-03-08T10:58:50;11.80;;;5.80;;
59587;SDS011;45412;54.472;18.464;2024-03-08T11:01:39;11.60;;;5.10;;
59587;SDS011;45412;54.472;18.464;2024-03-08T11:04:27;10.60;;;5.00;;
59587;SDS011;45412;54.472;18.464;2024-03-08T11:07:17;10.70;;;5.70;;
59587;SDS011;45412;54.472;18.464;2024-03-08T11:10:18;14.70;;;5.60;;
59587;SDS011;45412;54.472;18.464;2024-03-08T11:13:33;10.40;;;5.40;;
59587;SDS011;45412;54.472;18.464;2024-03-08T11:22:04;10.60;;;4.30;;
59587;SDS011;45412;54.472;18.464;2024-03-08T11:24:53;10.60;;;5.10;;
59587;SDS011;45412;54.472;18.464;2024-03-08T11:27:53;11.10;;;5.40;;
59587;SDS011;45412;54.472;18.464;2024-03-08T11:33:47;13.00;;;5.70;;
59587;SDS011;45412;54.472;18.464;2024-03-08T11:36:36;11.70;;;5.60;;
59587;SDS011;45412;54.472;18.464;2024-03-08T11:39:25;11.10;;;5.40;;
59587;SDS011;45412;54.472;18.464;2024-03-08T11:42:14;13.80;;;5.90;;
59587;SDS011;45412;54.472;18.464;2024-03-08T11:45:08;12.10;;;5.50;;
59587;SDS011;45412;54.472;18.464;2024-03-08T11:47:59;11.40;;;5.40;;
59587;SDS011;45412;54.472;18.464;2024-03-08T11:50:47;12.30;;;5.80;;
59587;SDS011;45412;54.472;18.464;2024-03-08T11:53:49;12.90;;;6.30;;
59587;SDS011;45412;54.472;18.464;2024-03-08T11:56:39;13.10;;;6.60;;
59587;SDS011;45412;54.472;18.464;2024-03-08T11:59:28;12.10;;;5.50;;
59587;SDS011;45412;54.472;18.464;2024-03-08T12:02:16;11.60;;;6.10;;
59587;SDS011;45412;54.472;18.464;2024-03-08T12:05:06;11.10;;;5.70;;
59587;SDS011;45412;54.472;18.464;2024-03-08T12:07:57;12.00;;;5.90;;
59587;SDS011;45412;54.472;18.464;2024-03-08T12:10:46;11.30;;;5.70;;
59587;SDS011;45412;54.472;18.464;2024-03-08T12:13:34;13.10;;;6.00;;
59587;SDS011;45412;54.472;18.464;2024-03-08T12:16:23;11.70;;;6.10;;
59587;SDS011;45412;54.472;18.464;2024-03-08T12:19:11;11.60;;;6.60;;
59587;SDS011;45412;54.472;18.464;2024-03-08T12:22:07;12.70;;;6.50;;
59587;SDS011;45412;54.472;18.464;2024-03-08T12:25:04;13.60;;;6.70;;
59587;SDS011;45412;54.472;18.464;2024-03-08T12:28:09;11.00;;;6.00;;
59587;SDS011;45412;54.472;18.464;2024-03-08T12:31:00;13.50;;;6.40;;
59587;SDS011;45412;54.472;18.464;2024-03-08T12:36:51;13.30;;;6.70;;
59587;SDS011;45412;54.472;18.464;2024-03-08T12:39:41;15.00;;;6.90;;
59587;SDS011;45412;54.472;18.464;2024-03-08T12:42:33;12.30;;;6.10;;
59587;SDS011;45412;54.472;18.464;2024-03-08T12:45:22;13.50;;;7.10;;
59587;SDS011;45412;54.472;18.464;2024-03-08T12:48:14;13.20;;;6.40;;
59587;SDS011;45412;54.472;18.464;2024-03-08T12:51:02;12.60;;;7.00;;
59587;SDS011;45412;54.472;18.464;2024-03-08T12:53:50;12.00;;;6.60;;
59587;SDS011;45412;54.472;18.464;2024-03-08T12:56:43;14.80;;;6.70;;
59587;SDS011;45412;54.472;18.464;2024-03-08T12:59:31;12.20;;;6.40;;
59587;SDS011;45412;54.472;18.464;2024-03-08T13:02:19;13.20;;;6.50;;
59587;SDS011;45412;54.472;18.464;2024-03-08T13:05:08;13.40;;;6.90;;
59587;SDS011;45412;54.472;18.464;2024-03-08T13:07:58;13.60;;;6.90;;
59587;SDS011;45412;54.472;18.464;2024-03-08T13:10:45;14.70;;;7.50;;
59587;SDS011;45412;54.472;18.464;2024-03-08T13:13:34;14.10;;;6.90;;
59587;SDS011;45412;54.472;18.464;2024-03-08T13:16:27;12.60;;;6.30;;
59587;SDS011;45412;54.472;18.464;2024-03-08T13:19:17;14.50;;;7.10;;
59587;SDS011;45412;54.472;18.464;2024-03-08T13:22:05;12.00;;;6.60;;
59587;SDS011;45412;54.472;18.464;2024-03-08T13:24:53;13.10;;;6.30;;
59587;SDS011;45412;54.472;18.464;2024-03-08T13:27:41;12.60;;;6.60;;
59587;SDS011;45412;54.472;18.464;2024-03-08T13:30:32;12.60;;;5.50;;
59587;SDS011;45412;54.472;18.464;2024-03-08T13:33:20;11.40;;;5.40;;
59587;SDS011;45412;54.472;18.464;2024-03-08T13:36:08;10.50;;;5.30;;
59587;SDS011;45412;54.472;18.464;2024-03-08T13:39:02;12.80;;;5.20;;
59587;SDS011;45412;54.472;18.464;2024-03-08T13:41:57;10.90;;;4.90;;
59587;SDS011;45412;54.472;18.464;2024-03-08T13:44:45;10.70;;;4.60;;
59587;SDS011;45412;54.472;18.464;2024-03-08T13:47:33;10.40;;;4.60;;
59587;SDS011;45412;54.472;18.464;2024-03-08T13:50:21;10.40;;;4.20;;
59587;SDS011;45412;54.472;18.464;2024-03-08T13:53:10;10.50;;;4.10;;
59587;SDS011;45412;54.472;18.464;2024-03-08T13:55:58;8.30;;;3.50;;
59587;SDS011;45412;54.472;18.464;2024-03-08T13:58:47;8.50;;;3.60;;
59587;SDS011;45412;54.472;18.464;2024-03-08T14:01:39;9.40;;;3.70;;
59587;SDS011;45412;54.472;18.464;2024-03-08T14:04:26;8.00;;;3.60;;
59587;SDS011;45412;54.472;18.464;2024-03-08T14:07:15;9.70;;;3.30;;
59587;SDS011;45412;54.472;18.464;2024-03-08T14:10:03;10.00;;;3.60;;
59587;SDS011;45412;54.472;18.464;2024-03-08T14:12:54;10.30;;;4.10;;
59587;SDS011;45412;54.472;18.464;2024-03-08T14:15:42;9.40;;;3.80;;
59587;SDS011;45412;54.472;18.464;2024-03-08T14:18:30;8.90;;;3.70;;
59587;SDS011;45412;54.472;18.464;2024-03-08T14:21:17;9.00;;;3.50;;
59587;SDS011;45412;54.472;18.464;2024-03-08T14:24:05;10.40;;;3.40;;
59587;SDS011;45412;54.472;18.464;2024-03-08T14:26:53;9.50;;;3.70;;
59587;SDS011;45412;54.472;18.464;2024-03-08T14:29:41;8.60;;;3.70;;
59587;SDS011;45412;54.472;18.464;2024-03-08T14:32:30;11.70;;;4.40;;
59587;SDS011;45412;54.472;18.464;2024-03-08T14:35:18;9.00;;;3.80;;
59587;SDS011;45412;54.472;18.464;2024-03-08T14:38:07;10.80;;;3.80;;
59587;SDS011;45412;54.472;18.464;2024-03-08T14:41:00;12.30;;;4.30;;
59587;SDS011;45412;54.472;18.464;2024-03-08T14:43:49;8.80;;;4.00;;
59587;SDS011;45412;54.472;18.464;2024-03-08T14:46:37;8.40;;;3.80;;
59587;SDS011;45412;54.472;18.464;2024-03-08T14:49:26;9.00;;;3.50;;
59587;SDS011;45412;54.472;18.464;2024-03-08T14:52:16;8.40;;;3.30;;
59587;SDS011;45412;54.472;18.464;2024-03-08T14:55:21;10.80;;;4.20;;
59587;SDS011;45412;54.472;18.464;2024-03-08T14:58:13;9.10;;;4.10;;
59587;SDS011;45412;54.472;18.464;2024-03-08T15:01:01;10.60;;;4.00;;
59587;SDS011;45412;54.472;18.464;2024-03-08T15:03:49;9.40;;;3.60;;
59587;SDS011;45412;54.472;18.464;2024-03-08T15:06:38;7.90;;;3.50;;
59587;SDS011;45412;54.472;18.464;2024-03-08T15:09:26;9.50;;;3.60;;
59587;SDS011;45412;54.472;18.464;2024-03-08T15:12:13;9.60;;;3.50;;
59587;SDS011;45412;54.472;18.464;2024-03-08T15:15:02;8.80;;;3.90;;
59587;SDS011;45412;54.472;18.464;2024-03-08T15:17:55;8.10;;;3.50;;
59587;SDS011;45412;54.472;18.464;2024-03-08T15:20:45;9.90;;;3.70;;
59587;SDS011;45412;54.472;18.464;2024-03-08T15:23:37;7.70;;;3.10;;
59587;SDS011;45412;54.472;18.464;2024-03-08T15:26:30;8.60;;;3.30;;
59587;SDS011;45412;54.472;18.464;2024-03-08T15:29:19;8.40;;;3.80;;
59587;SDS011;45412;54.472;18.464;2024-03-08T15:32:13;11.20;;;3.40;;
59587;SDS011;45412;54.472;18.464;2024-03-08T15:35:09;9.60;;;3.50;;
59587;SDS011;45412;54.472;18.464;2024-03-08T15:38:00;7.90;;;3.30;;
59587;SDS011;45412;54.472;18.464;2024-03-08T15:40:48;11.30;;;3.90;;
59587;SDS011;45412;54.472;18.464;2024-03-08T15:43:39;7.70;;;3.20;;
59587;SDS011;45412;54.472;18.464;2024-03-08T15:46:28;8.80;;;3.10;;
59587;SDS011;45412;54.472;18.464;2024-03-08T15:49:16;8.30;;;3.30;;
59587;SDS011;45412;54.472;18.464;2024-03-08T15:52:06;10.10;;;3.80;;
59587;SDS011;45412;54.472;18.464;2024-03-08T15:54:54;9.80;;;4.00;;
59587;SDS011;45412;54.472;18.464;2024-03-08T15:57:41;9.80;;;3.90;;
59587;SDS011;45412;54.472;18.464;2024-03-08T16:00:29;8.60;;;3.60;;
59587;SDS011;45412;54.472;18.464;2024-03-08T16:03:23;8.70;;;3.70;;
59587;SDS011;45412;54.472;18.464;2024-03-08T16:06:11;11.10;;;4.70;;
59587;SDS011;45412;54.472;18.464;2024-03-08T16:08:59;10.20;;;3.60;;
59587;SDS011;45412;54.472;18.464;2024-03-08T16:11:48;9.10;;;4.10;;
59587;SDS011;45412;54.472;18.464;2024-03-08T16:14:39;9.10;;;4.20;;
59587;SDS011;45412;54.472;18.464;2024-03-08T16:17:26;10.20;;;4.50;;
59587;SDS011;45412;54.472;18.464;2024-03-08T16:20:15;9.80;;;4.20;;
59587;SDS011;45412;54.472;18.464;2024-03-08T16:23:03;10.30;;;3.90;;
59587;SDS011;45412;54.472;18.464;2024-03-08T16:25:51;9.80;;;3.80;;
59587;SDS011;45412;54.472;18.464;2024-03-08T16:28:40;13.70;;;5.30;;
59587;SDS011;45412;54.472;18.464;2024-03-08T16:31:29;15.90;;;7.80;;
59587;SDS011;45412;54.472;18.464;2024-03-08T16:34:17;18.60;;;7.60;;
59587;SDS011;45412;54.472;18.464;2024-03-08T16:37:05;18.00;;;6.70;;
59587;SDS011;45412;54.472;18.464;2024-03-08T16:39:52;21.30;;;5.90;;
59587;SDS011;45412;54.472;18.464;2024-03-08T16:42:41;17.00;;;5.20;;